createdAt,value
2023-03-10T00:04:53.366Z,1.58
2023-03-10T00:09:54.846Z,1.17
2023-03-10T00:14:56.440Z,1.65
2023-03-10T00:19:57.819Z,1.10
2023-03-10T00:24:59.292Z,1.20
2023-03-10T00:30:01.134Z,1.05
2023-03-10T00:35:02.594Z,0.70
2023-03-10T00:40:07.282Z,0.50
2023-03-10T00:45:10.276Z,0.55
2023-03-10T00:50:11.875Z,0.63
2023-03-10T00:55:13.281Z,0.43
2023-03-10T01:00:17.830Z,0.57
2023-03-10T01:10:22.180Z,0.30
2023-03-10T01:15:23.559Z,0.25
2023-03-10T01:20:25.050Z,0.57
2023-03-10T01:25:28.096Z,0.55
2023-03-10T01:30:29.446Z,0.40
2023-03-10T01:35:31.278Z,0.30
2023-03-10T01:40:32.790Z,0.20
2023-03-10T01:45:34.159Z,0.45
2023-03-10T01:50:35.836Z,0.20
2023-03-10T01:55:43.550Z,0.30
2023-03-10T02:00:44.985Z,0.20
2023-03-10T02:05:51.906Z,0.20
2023-03-10T02:10:53.767Z,0.10
2023-03-10T02:15:55.172Z,0.25
2023-03-10T02:21:20.061Z,0.35
2023-03-10T02:31:42.086Z,0.40
2023-03-10T02:36:43.487Z,0.20
2023-03-10T02:41:45.924Z,0.30
2023-03-10T02:46:47.682Z,0.30
2023-03-10T02:51:49.187Z,0.20
2023-03-10T02:56:50.625Z,0.30
2023-03-10T03:01:52.058Z,0.25
2023-03-10T03:06:53.424Z,0.32
2023-03-10T03:11:54.832Z,0.20
2023-03-10T03:16:56.188Z,1.13
2023-03-10T03:21:57.497Z,0.65
2023-03-10T03:26:59.292Z,0.38
2023-03-10T03:32:00.657Z,0.50
2023-03-10T03:37:02.037Z,0.30
2023-03-10T03:42:03.662Z,0.13
2023-03-10T03:47:05.305Z,0.30
2023-03-10T03:52:07.499Z,0.55
2023-03-10T03:57:09.110Z,0.77
2023-03-10T04:02:10.686Z,0.20
2023-03-10T04:07:12.150Z,0.40
2023-03-10T04:12:13.474Z,0.55
2023-03-10T04:17:14.790Z,0.30
2023-03-10T04:22:16.228Z,0.30
2023-03-10T04:27:17.574Z,0.20
2023-03-10T04:32:19.323Z,0.20
2023-03-10T04:37:21.758Z,0.50
2023-03-10T04:42:24.203Z,0.47
2023-03-10T04:47:26.001Z,0.30
2023-03-10T04:52:27.529Z,0.40
2023-03-10T04:57:28.967Z,0.47
2023-03-10T05:02:32.119Z,0.40
2023-03-10T05:07:33.552Z,0.30
2023-03-10T05:12:34.935Z,0.63
2023-03-10T05:17:36.313Z,0.80
2023-03-10T05:22:38.835Z,0.40
2023-03-10T05:27:40.263Z,0.75
2023-03-10T05:32:43.112Z,0.80
2023-03-10T05:37:44.827Z,0.57
2023-03-10T05:42:47.381Z,0.70
2023-03-10T05:47:48.829Z,0.75
2023-03-10T05:52:50.459Z,0.90
2023-03-10T05:57:51.905Z,0.75
2023-03-10T06:02:53.385Z,0.60
2023-03-10T06:07:54.866Z,0.80
2023-03-10T06:12:56.365Z,0.77
2023-03-10T06:17:57.759Z,0.80
2023-03-10T06:22:59.413Z,0.50
2023-03-10T06:28:00.745Z,1.10
2023-03-10T06:33:02.702Z,0.95
2023-03-10T06:38:04.038Z,0.90
2023-03-10T06:43:05.445Z,1.00
2023-03-10T06:48:06.908Z,1.23
2023-03-10T06:53:09.719Z,1.25
2023-03-10T06:58:11.193Z,1.23
2023-03-10T07:03:12.746Z,1.10
2023-03-10T07:08:14.116Z,1.20
2023-03-10T07:13:17.135Z,1.27
2023-03-10T07:18:19.416Z,1.30
2023-03-10T07:23:20.915Z,0.93
2023-03-10T07:28:23.742Z,1.60
2023-03-10T07:33:25.252Z,1.58
2023-03-10T07:38:26.614Z,1.50
2023-03-10T07:43:27.999Z,1.45
2023-03-10T07:48:29.544Z,1.17
2023-03-10T07:53:31.498Z,1.08
2023-03-10T07:58:34.181Z,1.42
2023-03-10T08:03:36.012Z,1.52
2023-03-10T08:08:38.151Z,1.20
2023-03-10T08:13:40.303Z,1.35
2023-03-10T08:18:42.270Z,1.75
2023-03-10T08:23:43.888Z,1.67
2023-03-10T08:28:47.189Z,1.50
2023-03-10T08:33:49.656Z,1.70
2023-03-10T08:38:53.039Z,1.48
2023-03-10T08:43:56.146Z,1.58
2023-03-10T08:48:58.687Z,2.38
2023-03-10T08:54:00.409Z,1.38
2023-03-10T08:59:01.730Z,1.23
2023-03-10T09:04:05.237Z,0.98
2023-03-10T09:09:08.767Z,1.52
2023-03-10T09:14:11.833Z,1.17
2023-03-10T09:19:13.174Z,1.95
2023-03-10T09:24:14.507Z,0.70
2023-03-10T09:29:16.297Z,0.60
2023-03-10T09:34:17.673Z,1.17
2023-03-10T09:39:19.428Z,0.70
2023-03-10T09:44:39.066Z,0.82
2023-03-10T09:49:54.047Z,1.05
2023-03-10T09:55:29.991Z,1.88
2023-03-10T10:00:40.657Z,1.20
2023-03-10T10:05:44.383Z,0.93
2023-03-10T10:10:49.371Z,0.90
2023-03-10T10:16:18.299Z,1.05
2023-03-10T10:21:42.331Z,1.00
2023-03-10T10:26:44.365Z,0.82
2023-03-10T10:32:04.401Z,0.75
2023-03-10T10:37:28.275Z,0.55
2023-03-10T10:42:34.538Z,0.47
2023-03-10T10:47:47.357Z,0.68
2023-03-10T10:52:52.989Z,0.50
2023-03-10T10:58:01.762Z,0.50
2023-03-10T11:03:31.298Z,0.63
2023-03-10T11:08:39.261Z,0.50
2023-03-10T11:14:00.083Z,0.60
2023-03-10T11:19:13.258Z,0.25
2023-03-10T11:24:48.037Z,0.30
2023-03-10T11:29:55.204Z,0.17
2023-03-10T11:34:58.277Z,0.20
2023-03-10T11:40:08.611Z,0.28
2023-03-10T11:45:27.588Z,0.22
2023-03-10T11:50:28.889Z,0.20
2023-03-10T11:55:30.611Z,0.60
2023-03-10T12:00:39.575Z,0.60
2023-03-10T12:05:50.913Z,0.52
2023-03-10T12:10:53.660Z,0.63
2023-03-10T12:16:00.757Z,0.60
2023-03-10T12:21:12.045Z,0.43
2023-03-10T12:26:14.495Z,0.20
2023-03-10T12:31:37.521Z,0.82
2023-03-10T12:36:43.286Z,0.20
2023-03-10T12:41:49.503Z,0.45
2023-03-10T12:47:09.151Z,0.20
2023-03-10T12:52:28.492Z,0.40
2023-03-10T12:57:38.919Z,0.40
2023-03-10T13:02:50.803Z,0.20
2023-03-10T13:07:57.046Z,0.40
2023-03-10T13:13:05.699Z,0.50
2023-03-10T13:18:21.172Z,0.68
2023-03-10T13:23:25.761Z,0.30
2023-03-10T13:28:30.126Z,0.60
2023-03-10T13:33:37.423Z,0.52
2023-03-10T13:38:45.243Z,0.68
2023-03-10T13:43:48.531Z,0.20
2023-03-10T13:48:50.699Z,0.30
2023-03-10T13:53:55.183Z,0.32
2023-03-10T14:04:08.616Z,0.40
2023-03-10T14:09:12.896Z,0.52
2023-03-10T14:14:33.146Z,0.32
2023-03-10T14:19:38.608Z,0.25
2023-03-10T14:24:40.631Z,0.20
2023-03-10T14:29:49.886Z,0.22
2023-03-10T14:34:51.634Z,0.38
2023-03-10T14:39:53.135Z,0.20
2023-03-10T14:44:54.549Z,0.32
2023-03-10T14:49:56.032Z,0.50
2023-03-10T14:54:57.337Z,0.30
2023-03-10T15:00:00.651Z,0.40
2023-03-10T15:05:02.107Z,0.50
2023-03-10T15:10:11.922Z,0.38
2023-03-10T15:15:26.381Z,0.20
2023-03-10T15:20:27.973Z,0.20
2023-03-10T15:25:30.309Z,0.85
2023-03-10T15:30:36.256Z,0.10
2023-03-10T15:35:38.833Z,0.10
2023-03-10T15:40:41.603Z,0.03
2023-03-10T15:45:46.770Z,0.10
2023-03-10T15:50:49.120Z,0.10
2023-03-10T15:55:52.511Z,0.10
2023-03-10T16:00:53.875Z,0.10
2023-03-10T16:05:55.240Z,0.20
2023-03-10T16:10:56.689Z,0.20
2023-03-10T16:15:58.296Z,0.10
2023-03-10T16:21:01.676Z,0.10
2023-03-10T16:26:10.645Z,0.20
2023-03-10T16:31:14.213Z,0.10
2023-03-10T16:36:18.366Z,0.10
2023-03-10T16:41:21.086Z,0.38
2023-03-10T16:46:25.524Z,0.10
2023-03-10T16:51:35.118Z,0.10
2023-03-10T16:56:39.550Z,0.20
2023-03-10T17:01:41.068Z,0.20
2023-03-10T17:06:43.108Z,0.38
2023-03-10T17:11:55.280Z,0.68
2023-03-10T17:16:57.086Z,0.20
2023-03-10T17:21:58.999Z,0.30
2023-03-10T17:27:00.417Z,0.50
2023-03-10T17:32:01.785Z,0.25
2023-03-10T17:37:03.194Z,0.20
2023-03-10T17:42:04.844Z,0.20
2023-03-10T17:47:06.333Z,0.40
2023-03-10T17:52:07.725Z,0.35
2023-03-10T17:57:09.229Z,0.20
2023-03-10T18:02:12.341Z,0.28
2023-03-10T18:07:14.023Z,0.20
2023-03-10T18:12:16.291Z,0.30
2023-03-10T18:17:17.613Z,0.40
2023-03-10T18:22:19.264Z,0.52
2023-03-10T18:27:20.598Z,0.15
2023-03-10T18:32:24.271Z,0.20
2023-03-10T18:37:26.532Z,0.22
2023-03-10T18:42:28.366Z,0.20
2023-03-10T18:47:29.800Z,0.20
2023-03-10T18:52:32.965Z,0.10
2023-03-10T18:57:34.593Z,0.10
2023-03-10T19:02:36.305Z,0.40
2023-03-10T19:07:37.890Z,0.40
2023-03-10T19:12:39.871Z,0.40
2023-03-10T19:17:41.882Z,0.28
2023-03-10T19:22:47.302Z,0.63
2023-03-10T19:27:48.926Z,0.63
2023-03-10T19:32:50.424Z,0.50
2023-03-10T19:37:51.823Z,0.80
2023-03-10T19:42:53.263Z,1.20
2023-03-10T19:48:00.898Z,1.20
2023-03-10T19:53:02.427Z,1.30
2023-03-10T19:58:03.815Z,1.88
2023-03-10T20:03:05.427Z,2.13
2023-03-10T20:08:08.226Z,2.22
2023-03-10T20:13:09.671Z,2.42
2023-03-10T20:18:11.432Z,2.60
2023-03-10T20:23:13.546Z,2.17
2023-03-10T20:28:15.517Z,2.65
2023-03-10T20:33:21.215Z,2.72
2023-03-10T20:38:22.832Z,2.53
2023-03-10T20:43:24.308Z,2.28
2023-03-10T20:48:25.724Z,2.13
2023-03-10T20:53:27.800Z,2.20
2023-03-10T20:58:29.686Z,2.20
2023-03-10T21:03:31.147Z,2.53
2023-03-10T21:08:32.531Z,1.92
2023-03-10T21:13:34.453Z,1.90
2023-03-10T21:18:36.016Z,2.50
2023-03-10T21:23:39.076Z,1.80
2023-03-10T21:28:41.254Z,2.05
2023-03-10T21:33:42.781Z,1.65
2023-03-10T21:38:47.251Z,1.52
2023-03-10T21:43:49.168Z,1.42
2023-03-10T21:48:50.604Z,1.38
2023-03-10T21:53:56.224Z,1.30
2023-03-10T21:58:58.456Z,0.77
2023-03-10T22:03:59.914Z,1.02
2023-03-10T22:09:01.424Z,1.42
2023-03-10T22:14:03.302Z,1.25
2023-03-10T22:19:04.787Z,0.98
2023-03-10T22:24:06.390Z,1.45
2023-03-10T22:29:07.740Z,1.10
2023-03-10T22:34:09.170Z,0.80
2023-03-10T22:39:12.146Z,1.10
2023-03-10T22:44:13.571Z,1.20
2023-03-10T22:49:15.034Z,1.15
2023-03-10T22:54:16.340Z,0.80
2023-03-10T22:59:18.388Z,1.40
2023-03-10T23:04:19.715Z,1.10
2023-03-10T23:09:21.081Z,0.80
2023-03-10T23:14:22.514Z,0.70
2023-03-10T23:19:23.888Z,1.15
2023-03-10T23:24:25.350Z,0.80
2023-03-10T23:29:26.999Z,0.90
2023-03-10T23:34:28.350Z,0.70
2023-03-10T23:39:29.820Z,0.98
2023-03-10T23:44:31.196Z,0.95
2023-03-10T23:49:33.209Z,0.50
2023-03-10T23:54:34.584Z,0.70
2023-03-10T23:59:35.956Z,0.63
